createdAt,value
2022-12-11T11:47:33.134Z,7.45
2022-12-11T11:50:18.095Z,7.95
2022-12-11T11:52:49.143Z,8.35
2022-12-11T11:55:45.715Z,12.32
2022-12-11T11:58:25.010Z,9.95
2022-12-11T12:00:53.890Z,16.35
2022-12-11T12:03:22.014Z,6.78
2022-12-11T12:05:52.335Z,9.07
2022-12-11T12:08:30.299Z,10.77
2022-12-11T12:11:02.454Z,6.53
2022-12-11T12:13:54.808Z,9.57
2022-12-11T12:19:22.948Z,7.28
2022-12-11T12:21:52.406Z,7.10
2022-12-11T12:24:22.531Z,7.07
2022-12-11T12:26:57.034Z,9.75
2022-12-11T12:29:40.514Z,10.02
2022-12-11T12:32:13.606Z,10.05
2022-12-11T12:35:03.951Z,12.93
2022-12-11T12:37:31.050Z,13.40
2022-12-11T12:40:07.879Z,11.93
2022-12-11T12:42:53.531Z,8.43
2022-12-11T12:45:23.436Z,13.50
2022-12-11T12:47:53.530Z,8.05
2022-12-11T12:50:23.068Z,14.10
2022-12-11T12:52:51.584Z,10.63
2022-12-11T12:55:26.170Z,12.00
2022-12-11T12:58:00.691Z,7.32
2022-12-11T13:00:28.107Z,8.05
2022-12-11T13:02:56.553Z,7.97
2022-12-11T13:05:27.874Z,9.57
2022-12-11T13:07:57.251Z,8.45
2022-12-11T13:10:35.609Z,10.10
2022-12-11T13:13:04.004Z,9.25
2022-12-11T13:15:40.858Z,12.18
2022-12-11T13:18:28.341Z,11.02
2022-12-11T13:20:55.660Z,8.00
2022-12-11T13:23:35.257Z,11.20
2022-12-11T13:26:04.441Z,15.52
2022-12-11T13:28:33.788Z,9.27
2022-12-11T13:31:24.211Z,9.15
2022-12-11T13:33:52.686Z,9.90
2022-12-11T13:36:33.961Z,9.80
2022-12-11T13:39:01.160Z,9.32
2022-12-11T13:41:29.204Z,11.70
2022-12-11T13:43:58.271Z,12.70
2022-12-11T13:46:27.952Z,13.20
2022-12-11T13:48:57.792Z,14.00
2022-12-11T13:51:26.387Z,11.05
2022-12-11T13:54:22.950Z,18.27
2022-12-11T13:56:57.171Z,13.48
2022-12-11T13:59:35.471Z,12.52
2022-12-11T14:02:25.907Z,11.65
2022-12-11T14:04:55.307Z,16.48
2022-12-11T14:07:32.986Z,16.83
2022-12-11T14:10:06.605Z,9.20
2022-12-11T14:12:33.795Z,8.40
2022-12-11T14:15:02.906Z,11.73
2022-12-11T14:17:32.028Z,15.55
2022-12-11T14:20:00.838Z,16.58
2022-12-11T14:22:28.918Z,13.13
2022-12-11T14:24:59.142Z,11.30
2022-12-11T14:27:28.346Z,12.48
2022-12-11T14:29:55.722Z,9.73
2022-12-11T14:32:35.413Z,12.18
2022-12-11T14:35:04.527Z,13.32
2022-12-11T14:37:32.318Z,20.50
2022-12-11T14:40:01.517Z,17.38
2022-12-11T14:42:34.368Z,15.80
2022-12-11T14:45:05.337Z,10.43
2022-12-11T14:47:39.512Z,12.85
2022-12-11T14:50:14.142Z,13.82
2022-12-11T14:52:44.171Z,15.13
2022-12-11T14:55:14.141Z,12.35
2022-12-11T14:57:43.502Z,13.50
2022-12-11T15:00:21.301Z,13.52
2022-12-11T15:02:57.019Z,10.98
2022-12-11T15:05:24.259Z,12.80
2022-12-11T15:07:55.467Z,11.43
2022-12-11T15:10:24.598Z,9.75
2022-12-11T15:12:51.897Z,10.05
2022-12-11T15:15:19.161Z,12.68
2022-12-11T15:17:52.581Z,11.88
2022-12-11T15:20:29.904Z,15.93
2022-12-11T15:22:58.862Z,13.13
2022-12-11T15:25:27.726Z,16.00
2022-12-11T15:27:58.120Z,14.65
2022-12-11T15:30:29.372Z,10.38
2022-12-11T15:33:11.962Z,12.23
2022-12-11T15:35:40.983Z,13.50
2022-12-11T15:38:27.184Z,15.68
2022-12-11T15:40:54.509Z,15.15
2022-12-11T15:43:21.704Z,16.05
2022-12-11T15:45:48.825Z,16.70
2022-12-11T15:48:15.999Z,14.35
2022-12-11T15:50:43.317Z,17.25
2022-12-11T15:53:10.492Z,14.95
2022-12-11T15:55:38.291Z,13.68
2022-12-11T15:58:07.514Z,12.48
2022-12-11T16:00:34.761Z,15.90
2022-12-11T16:03:01.903Z,13.70
2022-12-11T16:05:29.117Z,19.92
2022-12-11T16:07:59.817Z,17.77
2022-12-11T16:10:27.423Z,19.05
2022-12-11T16:12:59.676Z,16.48
2022-12-11T16:15:27.491Z,16.60
2022-12-11T16:18:01.714Z,16.10
2022-12-11T16:20:29.233Z,16.55
2022-12-11T16:22:56.334Z,17.55
2022-12-11T16:25:23.603Z,15.18
2022-12-11T16:27:50.719Z,16.85
2022-12-11T16:30:17.904Z,12.95
2022-12-11T16:32:45.870Z,18.33
2022-12-11T16:35:13.404Z,15.60
2022-12-11T16:37:41.048Z,14.77
2022-12-11T16:40:08.782Z,10.32
2022-12-11T16:42:36.038Z,11.02
2022-12-11T16:45:08.780Z,9.63
2022-12-11T16:47:36.166Z,9.95
2022-12-11T16:50:05.535Z,8.32
2022-12-11T16:52:33.625Z,19.25
2022-12-11T16:55:00.896Z,10.80
2022-12-11T16:57:28.437Z,13.45
2022-12-11T16:59:55.521Z,11.57
2022-12-11T17:02:22.827Z,8.93
2022-12-11T17:04:53.990Z,14.95
2022-12-11T17:07:21.626Z,17.40
2022-12-11T17:09:51.663Z,16.70
2022-12-11T17:12:18.896Z,17.02
2022-12-11T17:14:46.353Z,21.77
2022-12-11T17:17:13.457Z,21.40
2022-12-11T17:19:40.659Z,18.02
2022-12-11T17:22:07.771Z,22.92
2022-12-11T17:24:38.277Z,21.15
2022-12-11T17:27:05.618Z,29.85
2022-12-11T17:29:32.802Z,22.15
2022-12-11T17:31:59.903Z,21.83
2022-12-11T17:34:27.146Z,22.63
2022-12-11T17:36:54.326Z,26.40
2022-12-11T17:39:21.438Z,22.95
2022-12-11T17:41:48.575Z,24.27
2022-12-11T17:44:15.749Z,18.90
2022-12-11T17:46:43.353Z,22.15
2022-12-11T17:49:10.808Z,22.77
2022-12-11T17:51:38.401Z,35.78
2022-12-11T17:54:08.237Z,23.45
2022-12-11T17:56:36.490Z,21.88
2022-12-11T17:59:03.905Z,26.65
2022-12-11T18:01:31.078Z,23.15
2022-12-11T18:04:01.817Z,20.98
2022-12-11T18:06:30.173Z,25.45
2022-12-11T18:08:58.094Z,26.35
2022-12-11T18:11:27.464Z,21.75
2022-12-11T18:13:54.694Z,21.65
2022-12-11T18:16:31.444Z,22.63
2022-12-11T18:19:00.416Z,23.17
2022-12-11T18:21:29.231Z,19.85
2022-12-11T18:23:56.740Z,17.88
2022-12-11T18:26:23.943Z,23.52
2022-12-11T18:28:51.777Z,18.67
2022-12-11T18:31:19.981Z,19.50
2022-12-11T18:33:47.413Z,30.58
2022-12-11T18:36:15.602Z,21.10
2022-12-11T18:38:43.663Z,18.35
2022-12-11T18:41:12.164Z,16.05
2022-12-11T18:43:40.355Z,18.35
2022-12-11T18:46:08.829Z,18.02
2022-12-11T18:48:36.159Z,18.65
2022-12-11T18:51:06.747Z,19.73
2022-12-11T18:53:34.950Z,17.02
2022-12-11T18:56:05.775Z,16.92
2022-12-11T18:58:32.906Z,14.43
2022-12-11T19:01:07.661Z,13.57
2022-12-11T19:03:42.355Z,16.77
2022-12-11T19:06:10.748Z,13.43
2022-12-11T19:08:38.006Z,15.90
2022-12-11T19:11:05.685Z,12.25
2022-12-11T19:13:33.319Z,13.82
2022-12-11T19:16:00.907Z,12.63
2022-12-11T19:18:28.528Z,13.98
2022-12-11T19:21:06.450Z,12.93
2022-12-11T19:23:36.164Z,14.93
2022-12-11T19:26:04.024Z,13.35
2022-12-11T19:28:31.633Z,11.88
2022-12-11T19:30:59.504Z,10.20
2022-12-11T19:33:26.863Z,10.43
2022-12-11T19:36:01.022Z,20.02
2022-12-11T19:38:28.305Z,15.93
2022-12-11T19:40:55.572Z,15.45
2022-12-11T19:43:22.802Z,13.43
2022-12-11T19:45:50.138Z,16.52
2022-12-11T19:48:17.532Z,13.25
2022-12-11T19:50:44.850Z,11.52
2022-12-11T19:53:12.253Z,10.52
2022-12-11T19:55:39.513Z,15.70
2022-12-11T19:58:06.816Z,14.00
2022-12-11T20:00:37.144Z,14.57
2022-12-11T20:03:04.328Z,13.65
2022-12-11T20:05:31.546Z,12.40
2022-12-11T20:08:27.386Z,12.85
2022-12-11T20:10:47.623Z,13.00
2022-12-11T20:13:14.870Z,15.57
2022-12-11T20:15:42.060Z,13.23
2022-12-11T20:18:14.034Z,11.13
2022-12-11T20:20:44.409Z,10.38
2022-12-11T20:23:13.911Z,11.10
2022-12-11T20:25:41.409Z,12.07
2022-12-11T20:28:08.621Z,13.77
2022-12-11T20:30:35.888Z,10.15
2022-12-11T20:33:03.662Z,8.30
2022-12-11T20:35:31.198Z,10.20
2022-12-11T20:37:58.615Z,11.75
2022-12-11T20:40:25.726Z,11.80
2022-12-11T20:42:52.942Z,12.77
2022-12-11T20:45:20.888Z,8.20
2022-12-11T20:47:48.739Z,8.45
2022-12-11T20:50:16.329Z,11.43
2022-12-11T20:52:44.934Z,11.15
2022-12-11T20:55:12.478Z,7.78
2022-12-11T20:57:44.904Z,9.60
2022-12-11T21:00:13.035Z,11.23
2022-12-11T21:02:40.402Z,11.85
2022-12-11T21:05:07.579Z,12.27
2022-12-11T21:07:34.712Z,10.18
2022-12-11T21:10:01.952Z,9.10
2022-12-11T21:12:31.678Z,11.05
2022-12-11T21:14:59.147Z,13.15
2022-12-11T21:17:26.263Z,10.20
2022-12-11T21:19:53.439Z,10.27
2022-12-11T21:22:23.369Z,11.65
2022-12-11T21:24:57.801Z,12.80
2022-12-11T21:27:28.152Z,12.50
2022-12-11T21:29:55.488Z,10.82
2022-12-11T21:32:22.695Z,13.85
2022-12-11T21:34:55.754Z,9.07
2022-12-11T21:37:23.367Z,11.07
2022-12-11T21:39:50.566Z,8.80
2022-12-11T21:42:17.700Z,10.77
2022-12-11T21:47:31.998Z,10.35
2022-12-11T21:49:59.174Z,13.07
2022-12-11T21:52:28.904Z,11.07
2022-12-11T21:54:56.927Z,12.75
2022-12-11T21:57:26.737Z,11.32
2022-12-11T21:59:54.088Z,10.90
2022-12-11T22:02:21.399Z,12.52
2022-12-11T22:04:48.625Z,13.02
2022-12-11T22:07:16.600Z,12.63
2022-12-11T22:09:43.896Z,9.73
2022-12-11T22:12:22.476Z,10.30
2022-12-11T22:14:49.709Z,14.13
2022-12-11T22:17:19.083Z,14.40
2022-12-11T22:19:46.955Z,17.10
2022-12-11T22:22:14.382Z,15.23
2022-12-11T22:24:41.514Z,12.57
2022-12-11T22:27:08.616Z,11.27
2022-12-11T22:29:35.834Z,13.25
2022-12-11T22:32:03.793Z,15.25
2022-12-11T22:34:30.987Z,17.23
2022-12-11T22:36:58.198Z,15.50
2022-12-11T22:39:25.345Z,17.50
2022-12-11T22:41:52.572Z,15.02
2022-12-11T22:44:21.082Z,16.15
2022-12-11T22:46:50.450Z,15.70
2022-12-11T22:49:19.141Z,13.98
2022-12-11T22:51:46.495Z,13.18
2022-12-11T22:54:13.649Z,21.17
2022-12-11T22:56:41.618Z,18.85
2022-12-11T22:59:09.906Z,17.00
2022-12-11T23:01:37.069Z,16.88
2022-12-11T23:04:04.285Z,14.95
2022-12-11T23:06:31.425Z,20.38
2022-12-11T23:08:59.689Z,16.92
2022-12-11T23:11:31.781Z,19.15
2022-12-11T23:13:58.996Z,14.27
2022-12-11T23:16:26.740Z,18.83
2022-12-11T23:18:54.728Z,17.40
2022-12-11T23:21:22.326Z,24.70
2022-12-11T23:23:49.860Z,19.30
2022-12-11T23:26:19.005Z,18.60
2022-12-11T23:28:46.472Z,20.02
2022-12-11T23:31:14.342Z,15.18
2022-12-11T23:33:41.669Z,18.67
2022-12-11T23:36:08.937Z,18.77
2022-12-11T23:38:36.086Z,18.50
2022-12-11T23:41:04.086Z,19.35
2022-12-11T23:43:32.364Z,17.75
2022-12-11T23:46:00.100Z,16.13
2022-12-11T23:48:27.260Z,16.20
2022-12-11T23:50:58.712Z,18.25
2022-12-11T23:53:25.856Z,16.73
2022-12-11T23:55:52.967Z,17.08
2022-12-11T23:58:20.071Z,16.80
